LIBN/LCC METAR and TAF weather

Enter ICAO airport designator
Station Type Date Time Source
LIBN METAR 2021/09/25 11:55 UTC NOAA

LIBN 251155Z 35008KT CAVOK 27/14 Q1021 RMK SKC VIS MIN 9999 WIND THR14 03007KT WIND THR32 02006KT BLU


Station Type Date Time Source
LIBN Decoded METAR 2021/09/25 11:55 UTC NOAA

Lecce, Italy (LIBN) 40-14N 018-09E 61M
Sep 25, 2021 - 07:55 AM EDT / 2021.09.25 1155 UTC
Wind: from the N (350 degrees) at 9 MPH (8 KT):0
Visibility: greater than 7 mile(s):0
Temperature: 80 F (27 C)
Dew Point: 57 F (14 C)
Relative Humidity: 44%
Pressure (altimeter): 30.15 in. Hg (1021 hPa)
ob: LIBN 251155Z 35008KT CAVOK 27/14 Q1021 RMK SKC VIS MIN 9999 WIND THR14 03007KT WIND THR32 02006KT BLU
cycle: 12

Station Type Date Time Source
LIBN TAF 2021/06/28 12:51 UTC NOAA

TAF TAF LIBN 281100Z 2812/2824 VRB03KT CAVOK

Example: see airport list